createdAt,value
2018-07-06T00:01:31.232Z,7.10
2018-07-06T00:04:05.100Z,5.80
2018-07-06T00:06:39.006Z,8.63
2018-07-06T00:09:12.840Z,4.17
2018-07-06T00:11:46.766Z,9.60
2018-07-06T00:14:20.597Z,5.07
2018-07-06T00:16:54.501Z,4.00
2018-07-06T00:19:28.403Z,3.77
2018-07-06T00:22:02.398Z,7.37
2018-07-06T00:24:36.160Z,4.47
2018-07-06T00:27:09.961Z,5.53
2018-07-06T00:29:43.834Z,3.57
2018-07-06T00:32:17.735Z,9.60
2018-07-06T00:34:51.604Z,4.07
2018-07-06T00:37:25.533Z,5.43
2018-07-06T00:39:59.307Z,12.00
2018-07-06T00:42:33.253Z,5.10
2018-07-06T00:45:07.129Z,3.57
2018-07-06T00:47:40.941Z,4.50
2018-07-06T00:50:14.906Z,5.20
2018-07-06T00:52:48.685Z,7.33
2018-07-06T00:55:22.597Z,13.13
2018-07-06T00:57:56.449Z,4.03
2018-07-06T01:00:30.408Z,10.73
2018-07-06T01:03:04.293Z,10.23
2018-07-06T01:05:38.140Z,6.03
2018-07-06T01:08:12.010Z,8.20
2018-07-06T01:10:45.895Z,4.53
2018-07-06T01:13:19.794Z,4.20
2018-07-06T01:15:53.656Z,5.80
2018-07-06T01:18:27.555Z,5.70
2018-07-06T01:21:01.472Z,5.70
2018-07-06T01:23:35.349Z,9.67
2018-07-06T01:26:09.072Z,5.20
2018-07-06T01:28:42.947Z,4.00
2018-07-06T01:31:16.893Z,15.23
2018-07-06T01:33:50.859Z,5.43
2018-07-06T01:36:24.718Z,4.73
2018-07-06T01:38:58.637Z,6.50
2018-07-06T01:41:32.351Z,5.03
2018-07-06T01:44:06.303Z,4.67
2018-07-06T01:46:40.161Z,3.73
2018-07-06T01:49:14.072Z,3.73
2018-07-06T01:51:47.920Z,5.73
2018-07-06T01:54:21.791Z,8.23
2018-07-06T01:56:55.659Z,7.00
2018-07-06T01:59:29.601Z,9.13
2018-07-06T02:02:03.444Z,5.30
2018-07-06T02:04:37.317Z,6.43
2018-07-06T02:07:11.162Z,4.37
2018-07-06T02:09:45.043Z,4.93
2018-07-06T02:12:18.889Z,6.57
2018-07-06T02:14:52.769Z,7.50
2018-07-06T02:17:26.612Z,5.13
2018-07-06T02:20:00.574Z,11.13
2018-07-06T02:22:34.648Z,4.50
2018-07-06T02:25:08.385Z,4.30
2018-07-06T02:27:42.299Z,10.17
2018-07-06T02:30:16.174Z,10.60
2018-07-06T02:32:50.020Z,5.57
2018-07-06T02:35:23.919Z,7.93
2018-07-06T02:37:57.657Z,8.70
2018-07-06T02:40:31.584Z,6.40
2018-07-06T02:43:05.485Z,8.87
2018-07-06T02:45:39.341Z,8.13
2018-07-06T02:48:13.260Z,6.00
2018-07-06T02:50:46.976Z,9.10
2018-07-06T02:53:20.808Z,9.90
2018-07-06T02:55:54.664Z,7.40
2018-07-06T02:58:28.583Z,6.20
2018-07-06T03:01:02.672Z,11.80
2018-07-06T03:03:36.528Z,6.23
2018-07-06T03:06:10.382Z,14.17
2018-07-06T03:08:44.242Z,7.37
2018-07-06T03:11:18.125Z,6.83
2018-07-06T03:13:51.845Z,8.93
2018-07-06T03:16:25.757Z,6.93
2018-07-06T03:18:59.485Z,11.80
2018-07-06T03:21:33.347Z,10.23
2018-07-06T03:24:07.837Z,10.20
2018-07-06T03:26:41.624Z,14.27
2018-07-06T03:29:15.721Z,10.40
2018-07-06T03:31:49.473Z,6.40
2018-07-06T03:34:23.310Z,13.70
2018-07-06T03:36:57.248Z,7.87
2018-07-06T03:39:31.105Z,9.40
2018-07-06T03:42:05.146Z,7.27
2018-07-06T03:44:38.891Z,14.13
2018-07-06T03:47:12.828Z,12.00
2018-07-06T03:49:46.567Z,9.90
2018-07-06T03:52:20.471Z,11.37
2018-07-06T03:54:55.897Z,11.50
2018-07-06T03:57:29.694Z,16.17
2018-07-06T04:00:03.537Z,9.00
2018-07-06T04:02:37.420Z,10.87
2018-07-06T04:05:11.287Z,12.93
2018-07-06T04:07:45.214Z,8.87
2018-07-06T04:10:19.136Z,10.53
2018-07-06T04:12:53.054Z,15.80
2018-07-06T04:15:26.916Z,13.90
2018-07-06T04:18:00.847Z,11.63
2018-07-06T04:20:34.695Z,12.27
2018-07-06T04:23:08.702Z,13.07
2018-07-06T04:25:42.560Z,17.87
2018-07-06T04:28:16.433Z,18.53
2018-07-06T04:30:50.367Z,13.63
2018-07-06T04:33:24.213Z,9.87
2018-07-06T04:35:58.054Z,19.03
2018-07-06T04:38:31.937Z,10.60
2018-07-06T04:41:05.810Z,17.40
2018-07-06T04:43:39.697Z,13.43
2018-07-06T04:46:13.600Z,11.80
2018-07-06T04:48:47.489Z,11.83
2018-07-06T04:51:21.343Z,9.80
2018-07-06T04:53:55.267Z,9.50
2018-07-06T04:56:29.014Z,11.00
2018-07-06T04:59:03.050Z,12.90
2018-07-06T05:01:36.892Z,9.57
2018-07-06T05:04:11.189Z,10.53
2018-07-06T05:06:45.014Z,8.13
2018-07-06T05:09:18.889Z,9.97
2018-07-06T05:11:52.738Z,8.23
2018-07-06T05:14:26.646Z,9.00
2018-07-06T05:17:00.554Z,12.73
2018-07-06T05:19:34.438Z,17.43
2018-07-06T05:22:08.282Z,11.30
2018-07-06T05:24:42.198Z,9.60
2018-07-06T05:27:16.049Z,11.63
2018-07-06T05:29:49.955Z,14.50
2018-07-06T05:32:23.812Z,9.67
2018-07-06T05:34:57.738Z,6.77
2018-07-06T05:37:31.623Z,9.17
2018-07-06T05:40:05.514Z,11.00
2018-07-06T05:42:39.381Z,13.10
2018-07-06T05:45:13.366Z,16.50
2018-07-06T05:47:47.352Z,12.17
2018-07-06T05:50:21.096Z,9.77
2018-07-06T05:52:54.946Z,10.90
2018-07-06T05:55:28.849Z,9.60
2018-07-06T05:58:02.689Z,10.10
2018-07-06T06:00:36.540Z,9.53
2018-07-06T06:03:10.450Z,11.70
2018-07-06T06:05:44.254Z,11.50
2018-07-06T06:08:11.980Z,17.17
2018-07-06T06:10:40.288Z,9.90
2018-07-06T06:13:08.566Z,9.23
2018-07-06T06:15:36.887Z,13.00
2018-07-06T06:18:05.376Z,13.20
2018-07-06T06:20:33.677Z,16.77
2018-07-06T06:23:01.996Z,11.90
2018-07-06T06:25:30.278Z,10.47
2018-07-06T06:27:58.616Z,11.77
2018-07-06T06:30:26.921Z,13.23
2018-07-06T06:32:55.288Z,13.97
2018-07-06T06:35:23.637Z,11.70
2018-07-06T06:37:52.106Z,20.43
2018-07-06T06:40:20.406Z,14.07
2018-07-06T06:42:48.792Z,22.27
2018-07-06T06:45:17.071Z,16.03
2018-07-06T06:47:45.886Z,16.43
2018-07-06T06:50:14.233Z,16.80
2018-07-06T06:52:42.565Z,17.30
2018-07-06T06:55:10.889Z,17.20
2018-07-06T06:57:39.229Z,17.43
2018-07-06T07:00:07.556Z,19.13
2018-07-06T07:02:35.877Z,19.17
2018-07-06T07:05:04.206Z,15.60
2018-07-06T07:07:32.569Z,18.33
2018-07-06T07:10:00.871Z,17.43
2018-07-06T07:12:29.197Z,17.67
2018-07-06T07:14:57.511Z,17.00
2018-07-06T07:17:25.865Z,15.90
2018-07-06T07:19:54.173Z,18.67
2018-07-06T07:22:22.485Z,17.20
2018-07-06T07:24:50.781Z,18.03
2018-07-06T07:27:19.125Z,16.20
2018-07-06T07:29:47.458Z,22.17
2018-07-06T07:32:15.846Z,15.60
2018-07-06T07:34:44.143Z,17.60
2018-07-06T07:37:12.513Z,16.93
2018-07-06T07:39:40.870Z,16.03
2018-07-06T07:42:09.145Z,16.93
2018-07-06T07:44:37.520Z,17.90
2018-07-06T07:47:05.845Z,17.93
2018-07-06T07:49:34.137Z,19.97
2018-07-06T07:52:09.210Z,19.43
2018-07-06T07:54:41.958Z,18.50
2018-07-06T07:57:10.270Z,19.90
2018-07-06T07:59:38.648Z,17.30
2018-07-06T08:02:07.003Z,19.30
2018-07-06T08:04:35.340Z,20.90
2018-07-06T08:07:03.708Z,20.80
2018-07-06T08:09:32.985Z,17.20
2018-07-06T08:12:02.344Z,18.23
2018-07-06T08:14:30.777Z,19.30
2018-07-06T08:16:59.023Z,17.87
2018-07-06T08:19:27.336Z,21.07
2018-07-06T08:21:55.659Z,19.40
2018-07-06T08:24:23.976Z,21.27
2018-07-06T08:26:52.340Z,22.57
2018-07-06T08:29:20.641Z,23.87
2018-07-06T08:31:48.946Z,25.90
2018-07-06T08:34:22.705Z,21.23
2018-07-06T08:37:22.369Z,23.97
2018-07-06T08:39:50.679Z,25.03
2018-07-06T08:42:18.966Z,20.07
2018-07-06T08:44:47.406Z,22.00
2018-07-06T08:47:15.725Z,21.50
2018-07-06T08:49:44.054Z,23.53
2018-07-06T08:52:12.393Z,21.00
2018-07-06T08:54:40.849Z,19.53
2018-07-06T08:57:09.277Z,18.90
2018-07-06T08:59:37.564Z,20.40
2018-07-06T09:02:05.892Z,27.60
2018-07-06T09:04:34.286Z,28.03
2018-07-06T09:07:02.546Z,26.00
2018-07-06T09:09:30.845Z,28.17
2018-07-06T09:11:59.154Z,27.30
2018-07-06T09:14:27.453Z,26.47
2018-07-06T09:16:55.774Z,28.47
2018-07-06T09:19:24.083Z,27.17
2018-07-06T09:21:52.431Z,25.97
2018-07-06T09:24:20.857Z,26.30
2018-07-06T09:26:49.157Z,23.83
2018-07-06T09:29:17.425Z,26.00
2018-07-06T09:31:45.888Z,24.83
2018-07-06T09:34:14.257Z,28.03
2018-07-06T09:36:42.546Z,24.97
2018-07-06T09:39:12.180Z,29.07
2018-07-06T09:41:40.541Z,25.10
2018-07-06T09:44:08.837Z,24.80
2018-07-06T09:46:37.710Z,24.07
2018-07-06T09:49:06.555Z,25.10
2018-07-06T09:51:34.865Z,26.77
2018-07-06T09:54:03.494Z,26.13
2018-07-06T09:56:31.613Z,22.53
2018-07-06T09:58:59.961Z,24.40
2018-07-06T10:01:28.253Z,23.57
2018-07-06T10:03:56.838Z,24.70
2018-07-06T10:06:25.226Z,20.90
2018-07-06T10:08:54.406Z,24.70
2018-07-06T10:11:23.362Z,24.50
2018-07-06T10:13:51.928Z,24.70
2018-07-06T10:16:20.637Z,26.07
2018-07-06T10:18:49.181Z,23.73
2018-07-06T10:21:17.875Z,21.27
2018-07-06T10:23:46.258Z,22.53
2018-07-06T10:26:14.574Z,22.20
2018-07-06T10:29:02.177Z,21.07
2018-07-06T10:31:32.727Z,22.77
2018-07-06T10:34:01.043Z,20.43
2018-07-06T10:36:29.355Z,22.07
2018-07-06T10:38:57.693Z,20.90
2018-07-06T10:41:25.990Z,19.23
2018-07-06T10:43:54.329Z,23.13
2018-07-06T10:46:22.988Z,20.40
2018-07-06T10:48:51.533Z,19.77
2018-07-06T10:51:19.911Z,18.67
2018-07-06T10:53:48.284Z,17.80
2018-07-06T10:56:16.566Z,19.63
2018-07-06T10:58:44.950Z,19.23
2018-07-06T11:01:13.286Z,17.27
2018-07-06T11:03:41.691Z,19.63
2018-07-06T11:06:10.171Z,16.93
2018-07-06T11:08:38.531Z,19.27
2018-07-06T11:11:06.866Z,19.43
2018-07-06T11:13:35.185Z,17.00
2018-07-06T11:16:03.514Z,19.47
2018-07-06T11:18:31.834Z,16.73
2018-07-06T11:21:00.197Z,21.33
2018-07-06T11:23:29.095Z,22.23
2018-07-06T11:25:57.419Z,14.87
2018-07-06T11:28:25.738Z,18.87
2018-07-06T11:30:54.032Z,15.53
2018-07-06T11:33:22.344Z,10.63
2018-07-06T11:35:50.646Z,11.60
2018-07-06T11:38:18.997Z,10.37
2018-07-06T11:40:47.990Z,14.70
2018-07-06T11:43:16.380Z,11.63
2018-07-06T11:45:44.708Z,9.23
2018-07-06T11:48:13.014Z,10.17
2018-07-06T11:50:41.301Z,5.13
2018-07-06T11:53:09.626Z,8.43
2018-07-06T11:55:37.987Z,7.17
2018-07-06T11:58:06.346Z,7.40
2018-07-06T12:00:34.677Z,7.47
2018-07-06T12:03:02.996Z,8.10
2018-07-06T12:05:31.352Z,11.37
2018-07-06T12:07:59.679Z,13.23
2018-07-06T12:10:28.021Z,12.57
2018-07-06T12:12:56.330Z,15.80
2018-07-06T12:15:24.646Z,13.57
2018-07-06T12:17:52.950Z,12.53
2018-07-06T12:20:21.265Z,15.53
2018-07-06T12:22:49.573Z,19.53
2018-07-06T12:25:17.872Z,15.43
2018-07-06T12:27:46.238Z,15.03
2018-07-06T12:30:14.548Z,14.20
2018-07-06T12:32:42.834Z,14.50
2018-07-06T12:35:11.165Z,13.87
2018-07-06T12:37:40.761Z,14.07
2018-07-06T12:40:09.765Z,16.20
2018-07-06T12:42:38.056Z,13.43
2018-07-06T12:45:06.422Z,12.93
2018-07-06T12:47:35.149Z,11.73
2018-07-06T12:50:04.916Z,11.23
2018-07-06T12:52:33.765Z,11.40
2018-07-06T12:55:02.124Z,11.47
2018-07-06T12:57:30.488Z,11.63
2018-07-06T12:59:58.801Z,9.00
2018-07-06T13:02:27.122Z,10.40
2018-07-06T13:04:55.446Z,10.03
2018-07-06T13:07:23.792Z,10.87
2018-07-06T13:09:52.092Z,10.93
2018-07-06T13:12:20.425Z,10.67
2018-07-06T13:14:48.707Z,9.77
2018-07-06T13:17:17.022Z,10.60
2018-07-06T13:19:45.409Z,9.27
2018-07-06T13:22:14.029Z,10.20
2018-07-06T13:24:42.330Z,6.17
2018-07-06T13:27:11.402Z,6.27
2018-07-06T13:29:39.974Z,8.70
2018-07-06T13:32:08.301Z,6.73
2018-07-06T13:34:36.576Z,8.03
2018-07-06T13:37:04.927Z,9.63
2018-07-06T13:39:33.265Z,9.63
2018-07-06T13:42:01.594Z,9.60
2018-07-06T13:44:29.968Z,8.87
2018-07-06T13:46:58.277Z,8.13
2018-07-06T13:49:26.545Z,11.53
2018-07-06T13:51:54.859Z,8.10
2018-07-06T13:54:23.187Z,10.73
2018-07-06T13:56:51.562Z,8.43
2018-07-06T13:59:19.912Z,8.20
2018-07-06T14:01:48.218Z,14.30
2018-07-06T14:04:16.490Z,10.27
2018-07-06T14:06:44.861Z,8.60
2018-07-06T14:09:13.232Z,9.97
2018-07-06T14:11:41.497Z,8.73
2018-07-06T14:14:09.828Z,7.50
2018-07-06T14:16:38.097Z,8.03
2018-07-06T14:19:06.459Z,6.17
2018-07-06T14:21:34.758Z,5.03
2018-07-06T14:24:03.099Z,6.90
2018-07-06T14:26:31.453Z,4.97
2018-07-06T14:28:59.782Z,9.07
2018-07-06T14:31:28.057Z,6.40
2018-07-06T14:33:56.402Z,4.50
2018-07-06T14:36:24.690Z,3.70
2018-07-06T14:38:52.981Z,6.40
2018-07-06T14:41:21.257Z,4.00
2018-07-06T14:43:49.565Z,4.50
2018-07-06T14:46:17.845Z,3.30
2018-07-06T14:48:46.123Z,14.53
2018-07-06T14:51:14.395Z,3.93
2018-07-06T14:53:42.788Z,3.33
2018-07-06T14:56:11.053Z,3.23
2018-07-06T14:58:39.361Z,3.97
2018-07-06T15:01:07.669Z,5.60
2018-07-06T15:03:35.988Z,8.60
2018-07-06T15:06:04.281Z,4.50
2018-07-06T15:08:32.577Z,6.93
2018-07-06T15:11:00.842Z,6.90
2018-07-06T15:13:29.169Z,3.37
2018-07-06T15:15:57.460Z,3.50
2018-07-06T15:18:25.871Z,3.50
2018-07-06T15:20:54.105Z,9.93
2018-07-06T15:23:22.402Z,7.47
2018-07-06T15:25:50.691Z,3.70
2018-07-06T15:28:19.020Z,3.03
2018-07-06T15:30:47.301Z,7.87
2018-07-06T15:33:15.570Z,5.80
2018-07-06T15:35:43.879Z,3.23
2018-07-06T15:38:12.187Z,5.67
2018-07-06T15:40:40.486Z,5.37
2018-07-06T15:43:08.770Z,3.30
2018-07-06T15:45:37.078Z,6.73
2018-07-06T15:48:05.360Z,4.73
2018-07-06T15:50:33.662Z,6.03
2018-07-06T15:53:01.934Z,9.33
2018-07-06T15:55:30.277Z,7.50
2018-07-06T15:57:58.611Z,5.10
2018-07-06T16:00:26.925Z,3.70
2018-07-06T16:02:55.206Z,6.10
2018-07-06T16:05:23.777Z,5.10
2018-07-06T16:07:52.041Z,3.80
2018-07-06T16:10:20.328Z,4.93
2018-07-06T16:12:48.653Z,3.90
2018-07-06T16:15:17.007Z,3.27
2018-07-06T16:17:45.397Z,3.70
2018-07-06T16:20:13.738Z,5.47
2018-07-06T16:22:42.238Z,6.57
2018-07-06T16:25:10.600Z,5.67
2018-07-06T16:27:38.902Z,6.80
2018-07-06T16:30:07.231Z,4.73
2018-07-06T16:32:35.614Z,4.17
2018-07-06T16:35:04.040Z,3.83
2018-07-06T16:37:32.324Z,4.10
2018-07-06T16:40:01.777Z,3.43
2018-07-06T16:42:30.081Z,6.53
2018-07-06T16:44:58.774Z,4.37
2018-07-06T16:47:27.089Z,6.30
2018-07-06T16:49:55.522Z,5.40
2018-07-06T16:52:24.093Z,4.17
2018-07-06T16:54:52.443Z,12.77
2018-07-06T16:57:20.719Z,4.10
2018-07-06T16:59:49.037Z,4.60
2018-07-06T17:02:17.317Z,3.80
2018-07-06T17:04:45.653Z,4.63
2018-07-06T17:07:14.712Z,6.70
2018-07-06T17:09:43.056Z,7.53
2018-07-06T17:12:11.302Z,5.93
2018-07-06T17:14:39.610Z,7.63
2018-07-06T17:17:07.930Z,6.77
2018-07-06T17:19:36.226Z,6.23
2018-07-06T17:22:04.496Z,4.63
2018-07-06T17:24:33.185Z,12.67
2018-07-06T17:27:01.490Z,4.20
2018-07-06T17:29:29.769Z,14.57
2018-07-06T17:31:58.075Z,6.50
2018-07-06T17:34:26.353Z,4.63
2018-07-06T17:36:55.034Z,4.73
2018-07-06T17:39:23.309Z,10.40
2018-07-06T17:41:51.860Z,5.33
2018-07-06T17:44:20.190Z,6.53
2018-07-06T17:46:48.510Z,4.00
2018-07-06T17:49:16.863Z,4.77
2018-07-06T17:51:45.203Z,6.53
2018-07-06T17:54:13.697Z,8.00
2018-07-06T17:56:42.050Z,9.93
2018-07-06T17:59:10.374Z,7.60
2018-07-06T18:01:38.680Z,5.00
2018-07-06T18:04:06.965Z,6.60
2018-07-06T18:06:35.277Z,8.43
2018-07-06T18:09:03.894Z,8.77
2018-07-06T18:11:33.080Z,5.10
2018-07-06T18:14:01.364Z,7.90
2018-07-06T18:16:29.705Z,9.03
2018-07-06T18:18:57.985Z,7.07
2018-07-06T18:21:27.293Z,7.87
2018-07-06T18:23:56.353Z,5.00
2018-07-06T18:26:25.807Z,5.20
2018-07-06T18:28:55.342Z,11.07
2018-07-06T18:31:23.778Z,5.63
2018-07-06T18:33:52.822Z,10.80
2018-07-06T18:36:22.597Z,6.50
2018-07-06T18:38:52.074Z,11.20
2018-07-06T18:41:20.346Z,8.20
2018-07-06T18:43:50.214Z,7.93
2018-07-06T18:46:19.562Z,8.40
2018-07-06T18:48:48.730Z,9.03
2018-07-06T18:51:17.596Z,9.27
2018-07-06T18:53:46.093Z,13.43
2018-07-06T18:56:14.726Z,19.60
2018-07-06T18:58:44.209Z,9.57
2018-07-06T19:01:13.231Z,15.17
2018-07-06T19:03:42.789Z,11.13
2018-07-06T19:06:12.314Z,9.73
2018-07-06T19:08:41.933Z,9.33
2018-07-06T19:11:11.606Z,11.67
2018-07-06T19:13:41.231Z,9.13
2018-07-06T19:16:10.918Z,13.00
2018-07-06T19:18:40.576Z,13.50
2018-07-06T19:21:10.074Z,8.53
2018-07-06T19:23:39.781Z,9.17
2018-07-06T19:26:08.633Z,9.20
2018-07-06T19:28:37.004Z,8.40
2018-07-06T19:31:05.488Z,8.93
2018-07-06T19:33:34.370Z,9.43
2018-07-06T19:36:03.768Z,10.17
2018-07-06T19:38:33.560Z,8.20
2018-07-06T19:41:03.085Z,14.33
2018-07-06T19:43:32.708Z,11.67
2018-07-06T19:46:02.324Z,11.47
2018-07-06T19:48:32.025Z,7.30
2018-07-06T19:51:01.627Z,8.10
2018-07-06T19:53:31.328Z,7.80
2018-07-06T19:56:00.866Z,15.27
2018-07-06T19:58:30.149Z,11.50
2018-07-06T20:00:59.054Z,8.43
2018-07-06T20:03:27.401Z,10.00
2018-07-06T20:05:56.485Z,10.87
2018-07-06T20:08:25.354Z,7.87
2018-07-06T20:10:54.742Z,9.00
2018-07-06T20:13:24.123Z,11.43
2018-07-06T20:15:52.834Z,8.83
2018-07-06T20:18:23.180Z,7.13
2018-07-06T20:20:51.585Z,13.30
2018-07-06T20:23:20.216Z,11.00
2018-07-06T20:25:49.394Z,7.67
2018-07-06T20:28:19.513Z,9.10
2018-07-06T20:30:49.754Z,9.27
2018-07-06T20:33:19.089Z,7.87
2018-07-06T20:35:48.320Z,11.53
2018-07-06T20:38:16.761Z,15.93
2018-07-06T20:40:45.242Z,7.00
2018-07-06T20:43:13.636Z,11.50
2018-07-06T20:45:42.722Z,12.83
2018-07-06T20:48:12.241Z,14.27
2018-07-06T20:50:40.681Z,7.53
2018-07-06T20:53:08.966Z,10.17
2018-07-06T20:55:39.463Z,18.23
2018-07-06T20:58:11.041Z,12.70
2018-07-06T21:00:39.398Z,9.50
2018-07-06T21:03:07.894Z,10.47
2018-07-06T21:05:36.205Z,9.90
2018-07-06T21:08:04.703Z,10.70
2018-07-06T21:10:33.017Z,15.43
2018-07-06T21:13:01.312Z,9.23
2018-07-06T21:15:29.629Z,9.67
2018-07-06T21:17:57.964Z,17.00
2018-07-06T21:20:26.304Z,10.80
2018-07-06T21:22:54.636Z,15.63
2018-07-06T21:25:22.941Z,10.27
2018-07-06T21:27:51.290Z,19.13
2018-07-06T21:30:19.679Z,16.63
2018-07-06T21:32:48.043Z,10.60
2018-07-06T21:35:16.570Z,14.30
2018-07-06T21:37:46.189Z,12.43
2018-07-06T21:40:14.610Z,10.00
2018-07-06T21:42:42.919Z,10.80
2018-07-06T21:45:11.366Z,23.27
2018-07-06T21:47:39.692Z,21.37
2018-07-06T21:50:08.100Z,15.83
2018-07-06T21:52:36.408Z,11.27
2018-07-06T21:55:04.712Z,20.10
2018-07-06T21:57:33.033Z,14.80
2018-07-06T22:00:01.340Z,18.50
2018-07-06T22:02:29.674Z,14.40
2018-07-06T22:04:57.959Z,12.03
2018-07-06T22:07:26.349Z,27.90
2018-07-06T22:09:54.648Z,59.27
2018-07-06T22:12:22.959Z,14.27
2018-07-06T22:14:51.249Z,17.63
2018-07-06T22:17:19.586Z,18.10
2018-07-06T22:19:47.869Z,19.70
2018-07-06T22:22:16.213Z,13.60
2018-07-06T22:24:44.485Z,13.23
2018-07-06T22:27:12.814Z,28.23
2018-07-06T22:29:41.253Z,20.47
2018-07-06T22:32:09.572Z,13.33
2018-07-06T22:34:37.856Z,14.70
2018-07-06T22:37:06.194Z,15.00
2018-07-06T22:39:34.514Z,16.33
2018-07-06T22:42:02.831Z,13.73
2018-07-06T22:44:31.125Z,15.67
2018-07-06T22:46:59.450Z,11.77
2018-07-06T22:49:27.715Z,15.77
2018-07-06T22:51:56.041Z,13.97
2018-07-06T22:54:24.433Z,15.47
2018-07-06T22:56:52.739Z,18.07
2018-07-06T22:59:21.265Z,15.90
2018-07-06T23:01:49.577Z,14.77
2018-07-06T23:04:17.948Z,15.83
2018-07-06T23:06:46.231Z,18.30
2018-07-06T23:09:14.541Z,15.80
2018-07-06T23:11:42.872Z,17.20
2018-07-06T23:14:11.184Z,24.97
2018-07-06T23:16:39.470Z,15.23
2018-07-06T23:19:07.769Z,17.57
2018-07-06T23:21:36.049Z,18.70
2018-07-06T23:24:04.418Z,26.33
2018-07-06T23:26:32.716Z,14.10
2018-07-06T23:29:01.017Z,21.40
2018-07-06T23:31:29.325Z,16.40
2018-07-06T23:33:57.654Z,25.03
2018-07-06T23:36:25.950Z,17.93
2018-07-06T23:38:54.281Z,24.00
2018-07-06T23:41:22.553Z,19.07
2018-07-06T23:43:51.054Z,15.20
2018-07-06T23:46:19.370Z,16.60
2018-07-06T23:48:50.314Z,15.87
2018-07-06T23:51:18.570Z,14.60
2018-07-06T23:53:46.900Z,14.97
2018-07-06T23:56:15.270Z,25.07
2018-07-06T23:58:43.579Z,14.93
